Terminal Aerodrome Forecast
Issued by NWS Missoula, MT

Home | Current Version | Previous Version | Text Only | Print | Product List | Glossary On
Versions: 1 2 3 4 5 6 7 8 9 10 11 12 13 14 15 16 17
922
FTUS45 KMSO 142001 AAA
TAFBTM
TAF AMD
KBTM 142001Z 1420/1518 31015G25KT P6SM BKN060
     FM150100 31006KT P6SM SCT070 BKN120
     FM150600 31005KT P6SM VCSH BKN050 BKN080
     FM151400 29020G30KT P6SM SCT050 BKN080=

USA.gov is the U.S. government's official web portal to all federal, state and local government web resources and services.